Terminal Aerodrome Forecast
Issued by NWS

Home | Current Version | Previous Version | Text Only | Print | Product List | Glossary On
Versions: 1 2 3 4 5 6 7 8 9 10 11 12 13 14 15 16
000
FTAK31 PAJN 271740
TAFAKT
TAF
PAKT 271740Z 2718/2818 34010KT P6SM SKC
     FM280000 12008KT P6SM FEW120
     FM280400 12005KT P6SM BKN060 OVC100
     FM281200 14006KT P6SM VCSH SCT030 OVC060
      AMD LTD TO CLD VIS AND WIND 2806/2815=

USA.gov is the U.S. government's official web portal to all federal, state and local government web resources and services.